NCAR-RAP Real-Time Weather Data

Output produced by METARs form (26 May 2022  07:14 UTC)
found at http://weather.rap.ucar.edu/surface/
 
KTPA 260653Z 14007KT 10SM CLR 27/22 A3007 RMK AO2 SLP183 T02670217
KTPA 260553Z 13009KT 10SM CLR 27/22 A3008 RMK AO2 SLP186 T02720217 10322 20272 58005
KTPA 260453Z 12009G16KT 10SM CLR 28/22 A3010 RMK AO2 SLP191 T02780217 403500250
KTPA 260353Z VRB06KT 10SM FEW028 29/22 A3011 RMK AO2 SLP196 T02890217
KTPA 260253Z 15008KT 10SM BKN038 BKN060 29/22 A3010 RMK AO2 SLP191 T02940217 53024
KTPA 260153Z 33003KT 10SM SCT045 BKN060 29/21 A3007 RMK AO2 SLP182 T02890206
KTPA 260053Z 34004KT 10SM FEW040 SCT250 29/20 A3005 RMK AO2 SLP175 OCNL LTGIC DSNT S CB DSNT S T02940200
KTPA 252353Z 14007KT 100V190 10SM SCT060 BKN250 32/18 A3003 RMK AO2 SLP168 TCU DSNT S T03220178 10350 20322 53007
KTPA 252253Z 10010KT 10SM SCT060 BKN300 33/18 A3001 RMK AO2 SLP161 T03280183
KTPA 252153Z 11007KT 10SM SCT065 BKN300 33/18 A3000 RMK AO2 SLP159 T03330178
KTPA 252053Z 14009KT 100V160 10SM SCT065 BKN300 34/17 A3001 RMK AO2 SLP161 T03390167 56020
KTPA 251953Z 17010G17KT 10SM SCT065 BKN170 BKN250 34/17 A3002 RMK AO2 SLP165 T03440172
KTPA 251853Z 16007KT 120V190 10SM FEW050 SCT150 SCT250 BKN300 33/16 A3005 RMK AO2 SLP175 T03280161
KTPA 251753Z 17006KT 10SM FEW050 SCT150 BKN250 33/18 A3007 RMK AO2 SLP181 T03330178 10333 20261 58008
KTPA 251653Z 16009KT 10SM SCT042 BKN250 31/19 A3008 RMK AO2 SLP186 T03110189
KTPA 251553Z 15008KT 10SM FEW035 SCT220 BKN280 30/20 A3009 RMK AO2 SLP187 T03000200
KTPA 251453Z VRB06G15KT 10SM FEW035 SCT230 BKN280 29/21 A3009 RMK AO2 SLP189 T02940206 51005
KTPA 251353Z 13010G18KT 10SM FEW030 BKN210 BKN280 28/21 A3009 RMK AO2 SLP189 T02830206
KTPA 251253Z 15008KT 10SM FEW025 BKN200 BKN280 28/21 A3009 RMK AO2 SLP188 T02780211
KTPA 251153Z 12007KT 10SM SCT120 BKN180 26/21 A3008 RMK AO2 SLP184 70001 T02610206 10272 20250 51017
KTPA 251053Z 11005KT 10SM SCT120 BKN180 25/21 A3006 RMK AO2 SLP179 T02500206
KTPA 250953Z 13006KT 10SM SCT120 SCT180 25/20 A3004 RMK AO2 SLP172 T02500200
KTPA 250853Z 11005KT 10SM CLR 25/20 A3003 RMK AO2 SLP167 T02500200 56006
KTPA 250753Z 13007KT 10SM CLR 26/20 A3003 RMK AO2 SLP168 T02610200
KTPA 250653Z 14008G15KT 10SM CLR 27/21 A3004 RMK AO2 SLP171 T02670206
KTPA 250553Z 13009G15KT 10SM FEW120 27/20 A3004 RMK AO2 SLP173 60001 T02720200 10306 20272 58001
KTPA 250453Z 12007KT 10SM FEW032 BKN055 27/19 A3006 RMK AO2 SLP177 T02720194 403440261
KTPA 250353Z 16006KT 10SM FEW032 SCT050 28/21 A3006 RMK AO2 RAB23E34 SLP179 P0001 T02830211
KTPA 250253Z 10007G15KT 10SM FEW030 BKN250 29/19 A3005 RMK AO2 SLP174 60000 T02940194 51019
KTPA 250153Z VRB05KT 10SM FEW030 SCT048 BKN080 BKN250 29/21 A3003 RMK AO2 SLP169 T02890211
KTPA 250053Z 33004KT 10SM SCT055 BKN095 BKN250 28/22 A3001 RMK AO2 RAB28E38 SLP161 P0000 T02830222
KTPA 242353Z 30006KT 10SM SCT055TCU SCT090 BKN250 30/22 A2999 RMK AO2 SLP155 CB DSNT S TCU NW-SE T03000222 10344 20300 53005
KTPA 242253Z 31008KT 10SM SCT055 BKN090 BKN250 31/22 A2997 RMK AO2 SLP149 CB DSNT S-SW T03060222
KTPA 242153Z VRB04KT 10SM SCT055 SCT090 BKN250 33/18 A2997 RMK AO2 SLP149 T03330178
KTPA 242053Z 02003KT 10SM SCT055 BKN085 BKN250 33/19 A2998 RMK AO2 SLP150 CB DSNT S AND NW T03330194 56022
KTPA 241953Z 24005KT 10SM SCT055TCU BKN090 BKN250 32/19 A3000 RMK AO2 SLP157 CB DSNT NW TCU NW-N T03220194
KTPA 241853Z 27007KT 10SM SCT050CB BKN180 BKN300 32/21 A3002 RMK AO2 SLP164 CB N MOV NW TCU SE AND W T03170206
KTPA 241753Z 22010G16KT 10SM SCT055TCU BKN300 33/20 A3004 RMK AO2 SLP172 TCU ALQDS T03280200 10339 20267 58005
KTPA 241653Z 15007KT 10SM SCT047TCU SCT300 32/19 A3006 RMK AO2 SLP177 TCU ALQDS T03220194
KTPA 241553Z 15009G15KT 10SM SCT036TCU SCT300 31/21 A3006 RMK AO2 SLP178 TCU N AND E TCU DSNT S T03110206 $
KTPA 241453Z 12009G18KT 090V180 10SM SCT025 BKN300 31/21 A3006 RMK AO2 SLP178 T03060211 50006
KTPA 241353Z 15007KT 10SM SCT019 BKN300 28/22 A3006 RMK AO2 SLP180 T02830222
KTPA 241253Z 15010G16KT 10SM FEW015 FEW150 SCT250 BKN300 28/23 A3005 RMK AO2 SLP174 T02780228
KTPA 241153Z 14006KT 10SM FEW020 FEW120 SCT210 BKN300 27/22 A3004 RMK AO2 SLP171 T02670222 10278 20261 53009
KTPA 241053Z 14005KT 10SM FEW017 BKN120 BKN210 26/22 A3002 RMK AO2 SLP165 T02610222
KTPA 240953Z 08005KT 10SM BKN120 27/22 A3000 RMK AO2 SLP159 T02670222
KTPA 240853Z 09005KT 10SM SCT120 27/22 A3001 RMK AO2 SLP162 T02670222 56015
KTPA 240753Z 10SM CLR 27/22 A3002 RMK AO2 SLP163 T02670222